Nearby METAR Reports

 

ENRY - Rygge (nor-Afb), Norway
Distance from station: SØ 12km
Oppdatert: 21/09/2021 16:20
Few Clouds
Few Clouds
 Vind fra varies
Vind: varies 9 km/h
Temperatur: 16°C
Duggpunkt: 10°C
Fuktighet: 68%
Barometer: 1019 hPa
Clouds: Few Clouds
Visibility: 10 km
Cloud details: Few Clouds 457 m
2021/09/21 14:20 ENRY 211420Z VRB05KT 9999 FEW015 16/10 Q1019
ENTO - Torp (civ/Nor-Af, Norway
Distance from station: SV 34km
Oppdatert: 21/09/2021 16:20
Klart
Klart
 Vind fra VNV
Vind: VNV 9 km/h
Temperatur: 15°C
Duggpunkt: 8°C
Fuktighet: 63%
Barometer: 1019 hPa
Oversikt: Klart
Visibility: greater than 10 km
2021/09/21 14:20 ENTO 211420Z 29005KT 240V330 CAVOK 15/08 Q1019 NOSIG
 
ENNO - Notodden, Norway
Distance from station: V 80km
Oppdatert: 21/09/2021 16:20
Delvis skyet
Delvis skyet
 Vind fra calm
Vind: Stille
Temperatur: 14°C
Duggpunkt: 10°C
Fuktighet: 77%
Barometer: 1020 hPa
Clouds: Delvis skyet
Visibility: 10 km
Cloud details: Few Clouds 1829 m
Delvis skyet 3048 m
2021/09/21 14:20 ENNO 211420Z 00000KT 9999 FEW060 SCT100 14/10 Q1020
ENGM - Oslo/Gardermoen, Norway
Distance from station: NNØ 88km
Oppdatert: 21/09/2021 16:20
Hovedsaklig skyet
Hovedsaklig skyet
 Vind fra VSV
Vind: VSV 6 km/h
Temperatur: 15°C
Duggpunkt: 5°C
Fuktighet: 51%
Barometer: 1018 hPa
Clouds: Hovedsaklig skyet
Visibility: 10 km
Cloud details: Few Clouds 823 m
Hovedsaklig skyet 5182 m
2021/09/21 14:20 ENGM 211420Z 25003KT 190V340 9999 FEW027 BKN170 15/05 Q1018 NOSIG
 
ESOK - Karlstad North, Sweden
Distance from station: Ø 153km
Oppdatert: 21/09/2021 16:20
Overskyet
Overskyet
 Vind fra SV
Vind: SV 9 km/h
Temperatur: 10°C
Wind Chill: 9°C
Duggpunkt: 10°C
Fuktighet: 100%
Barometer: 1020 hPa
Clouds: Overskyet
Visibility: 10 km
Cloud details: Delvis skyet 183 m
Overskyet 244 m
2021/09/21 14:20 ESOK 211420Z 23005KT 9999 SCT006 OVC008 10/10 Q1020
ESST - Torsby, Sweden
Distance from station: ØNØ 154km
Oppdatert: 21/09/2021 16:20
Hovedsaklig skyet
Hovedsaklig skyet
 Vind fra SSØ
Vind: SSØ 9 km/h
Temperatur: 12°C
Duggpunkt: 10°C
Fuktighet: 88%
Barometer: 1019 hPa
Clouds: Hovedsaklig skyet
Visibility: 10 km
Cloud details: Hovedsaklig skyet 823 m
2021/09/21 14:20 ESST 211420Z 15005KT 9999 BKN027 12/10 Q1019
 
ESGT - Trollhattan (pvt, Sweden
Distance from station: SØ 159km
Oppdatert: 21/09/2021 16:20
Overskyet
Overskyet
 Vind fra SSV
Vind: SSV 17 km/h
Temperatur: 11°C
Duggpunkt: 10°C
Fuktighet: 94%
Barometer: 1020 hPa
Clouds: Overskyet
Visibility: 10 km
Cloud details: Overskyet 183 m
2021/09/21 14:20 ESGT 211420Z AUTO 20009KT 9999 OVC006/// 11/10 Q1020
ESIB - Satenas (swe-Afb, Sweden
Distance from station: SØ 164km
Oppdatert: 21/09/2021 16:20
Hovedsaklig skyet
Hovedsaklig skyet
 Vind fra SSV
Vind: SSV 15 km/h
Temperatur: 11°C
Duggpunkt: 10°C
Fuktighet: 94%
Barometer: 1019 hPa
Clouds: Hovedsaklig skyet
Visibility: 10 km
Cloud details: Hovedsaklig skyet 213 m
2021/09/21 14:20 ESIB 211420Z 21008KT 9999 BKN007 11/10 Q1019
 
ENCN - Kristiansand/Kje, Norway
Distance from station: SV 202km
Oppdatert: 21/09/2021 16:20
Klart
Klart
 Vind fra SV
Vind: SV 11 km/h
Temperatur: 14°C
Duggpunkt: 9°C
Fuktighet: 72%
Barometer: 1022 hPa
Oversikt: Klart
Visibility: greater than 10 km
2021/09/21 14:20 ENCN 211420Z 23006KT CAVOK 14/09 Q1022
EKSN - Sindal Airport, Denmark
Distance from station: S 217km
Oppdatert: 21/09/2021 14:50
NOT Current
Hovedsaklig skyet
Hovedsaklig skyet
 Vind fra VNV
Vind: VNV 26 km/h
Temperatur: 15°C
Duggpunkt: 11°C
Fuktighet: 77%
Barometer: 1021 hPa
Clouds: Hovedsaklig skyet
Visibility: 10 km
Cloud details: Few Clouds 518 m
Hovedsaklig skyet 6096 m
2021/09/21 12:50 EKSN 211250Z 29014KT 9999 FEW017 BKN200 15/11 Q1021
 
ESGG - Goteborg/Landvet, Sweden
Distance from station: SSØ 220km
Oppdatert: 21/09/2021 16:20
Overskyet
Overskyet
 Vind fra S
Vind: S 15 km/h
Temperatur: 11°C
Duggpunkt: 10°C
Fuktighet: 94%
Barometer: 1020 hPa
Clouds: Overskyet
Visibility: 10 km
Cloud details: Overskyet 152 m
2021/09/21 14:20 ESGG 211420Z 17008KT 9999 OVC005 11/10 Q1020
ESGR - Skovde Airport, Sweden
Distance from station: ØSØ 221km
Oppdatert: 21/09/2021 16:20
Noe regn, Overskyet
Noe regn, Overskyet
 Vind fra SSØ
Vind: SSØ 11 km/h
Temperatur: 10°C
Wind Chill: 8°C
Duggpunkt: 9°C
Fuktighet: 94%
Barometer: 1020 hPa
Oversikt: Noe regn
Clouds: Overskyet
Visibility: 10 km
Cloud details: Few Clouds 823 m
Overskyet 1341 m
2021/09/21 14:20 ESGR 211420Z 16006KT 9999 -RA FEW027 OVC044 10/09 Q1020
 
ESOE - Orebro (private), Sweden
Distance from station: Ø 252km
Oppdatert: 21/09/2021 16:20
Hovedsaklig skyet
Hovedsaklig skyet
 Vind fra S
Vind: S 17 km/h
Temperatur: 11°C
Duggpunkt: 7°C
Fuktighet: 77%
Barometer: 1021 hPa
Clouds: Hovedsaklig skyet
Visibility: 10 km
Cloud details: Delvis skyet 762 m
Hovedsaklig skyet 945 m
2021/09/21 14:20 ESOE 211420Z 19009KT 9999 SCT025 BKN031 11/07 Q1021
EKYT - Alborg, Denmark
Distance from station: S 264km
Oppdatert: 21/09/2021 16:20
Few Clouds
Few Clouds
 Vind fra VNV
Vind: VNV 26 km/h
Temperatur: 16°C
Duggpunkt: 11°C
Fuktighet: 72%
Barometer: 1022 hPa
Clouds: Few Clouds
Visibility: 10 km
Cloud details: Few Clouds 792 m
2021/09/21 14:20 EKYT 211420Z 29014KT 9999 FEW026 16/11 Q1022
 
ENSG - Sogndal/Haukasen, Norway
Distance from station: NV 269km
Oppdatert: 21/09/2021 15:50
NOT Current
Rain Showers
Rain Showers
 Vind fra SV
Vind: SV 20 km/h
Oversikt: Rain Showers
Visibility: 10 km
2021/09/21 13:50 ENSG 211350Z 23011KT 9999 SHRA FEW/// SCT030 BKN040 09/07 Q1019 RMK WIND 3806FT 27029KT
ESGJ - Jonkoping Airpor, Sweden
Distance from station: SØ 273km
Oppdatert: 21/09/2021 16:20
Hovedsaklig skyet
Hovedsaklig skyet
 Vind fra S
Vind: S 9 km/h
Temperatur: 9°C
Wind Chill: 7°C
Duggpunkt: 9°C
Fuktighet: 100%
Barometer: 1021 hPa
Clouds: Hovedsaklig skyet
Visibility: 10 km
Cloud details: Hovedsaklig skyet 1250 m
2021/09/21 14:20 ESGJ 211420Z 18005KT 9999 BKN041 09/09 Q1021
 
ENZV - Stavanger/Sola(A, Norway
Distance from station: V 292km
Oppdatert: 21/09/2021 16:20
Hovedsaklig skyet
Hovedsaklig skyet
 Vind fra VNV
Vind: VNV 15 km/h
Temperatur: 15°C
Duggpunkt: 9°C
Fuktighet: 68%
Barometer: 1023 hPa
Clouds: Hovedsaklig skyet
Visibility: 10 km
Cloud details: Few Clouds 823 m
Delvis skyet 1067 m
Hovedsaklig skyet 2256 m
2021/09/21 14:20 ENZV 211420Z 29008KT 9999 FEW027 SCT035 BKN074 15/09 Q1023 NOSIG
ESSD - Borlange (swe-Af, Sweden
Distance from station: ØNØ 292km
Oppdatert: 21/09/2021 16:20
Hovedsaklig skyet
Hovedsaklig skyet
 Vind fra SSV
Vind: SSV 9 km/h
Temperatur: 9°C
Wind Chill: 7°C
Duggpunkt: 8°C
Fuktighet: 94%
Barometer: 1019 hPa
Clouds: Hovedsaklig skyet
Visibility: 8 km
Cloud details: Hovedsaklig skyet 213 m
2021/09/21 14:20 ESSD 211420Z 20005KT 160V240 8000 BKN007 09/08 Q1019 REDZ
 
ENSO - Stord/Soerstokke, Norway
Distance from station: V 300km
Oppdatert: 21/09/2021 16:20
Hovedsaklig skyet
Hovedsaklig skyet
 Vind fra varies
Vind: varies 2 km/h
Temperatur: 13°C
Duggpunkt: 10°C
Fuktighet: 82%
Barometer: 1022 hPa
Clouds: Hovedsaklig skyet
Visibility: 10 km
Cloud details: Delvis skyet 762 m
Hovedsaklig skyet 1524 m
2021/09/21 14:20 ENSO 211420Z VRB01KT 9999 SCT025 BKN050 13/10 Q1022
ESCF - Linkoping/Malmen, Sweden
Distance from station: ØSØ 305km
Oppdatert: 21/09/2021 16:20
Hovedsaklig skyet
Hovedsaklig skyet
 Vind fra SV
Vind: SV 15 km/h
Temperatur: 12°C
Duggpunkt: 5°C
Fuktighet: 63%
Barometer: 1021 hPa
Clouds: Hovedsaklig skyet
Visibility: 10 km
Cloud details: Few Clouds 1463 m
Hovedsaklig skyet 2073 m
2021/09/21 14:20 ESCF 211420Z 22008KT 9999 FEW048 BKN068 12/05 Q1021